Latest Weather Observations for Middle Point

IDD60801

Issued at 6:01 pm CST Friday 20 October 2017 (issued every 30 minutes, with the page automatically refreshed every 10 minutes)

About weather observations | Map of weather stations | Latest weather observations for NT | Other Formats
Station Details ID: 014041 Name: MIDDLE POINT Lat: -12.61 Lon: 131.30 Height: 14.1 m
Data from the previous 72 hours. | See also: Recent months at Middle Point
Date/Time
CST
Temp
°C
App
Temp
°C
Dew
Point
°C
Rel
Hum
%
Delta-T
°C
Wind Press
QNH
hPa
Press
MSL
hPa
Rain since
9am
mm
Dir  Spd
km/h
Gust
km/h
Spd
kts
Gust
kts
20/06:00pm 32.0 34.6 23.3 60 6.0 NNW 15 20 8 11 1008.4 1008.3 0.2
20/05:30pm 33.4 34.6 22.5 52 7.5 N 20 28 11 15 1008.1 1008.0 0.2
20/05:00pm 33.5 35.1 22.9 53 7.3 N 19 28 10 15 1007.8 1007.7 0.2
20/04:30pm 33.5 35.1 23.8 57 6.8 N 22 32 12 17 1007.6 1007.5 0.2
20/04:00pm 37.3 37.2 17.8 31 12.7 ESE 15 22 8 12 1007.9 1007.8 0.2
20/03:30pm 37.5 36.4 16.4 28 13.5 SE 17 28 9 15 1008.3 1008.2 0.2
20/03:00pm 36.7 37.1 16.3 30 13.0 SE 9 20 5 11 1008.8 1008.7 0.2
20/02:30pm 36.2 37.1 18.3 34 11.7 S 11 17 6 9 1009.1 1009.0 0.2
20/02:00pm 36.3 37.4 18.8 35 11.5 S 11 22 6 12 1009.5 1009.4 0.2
20/01:30pm 35.8 37.5 18.4 35 11.4 SSW 7 15 4 8 1010.2 1010.1 0.2
20/01:00pm 35.7 37.3 20.8 42 10.1 SSW 13 22 7 12 1010.7 1010.6 0.2
20/12:30pm 35.1 38.2 21.4 45 9.3 SSW 7 15 4 8 1011.1 1010.9 0.2
20/12:00pm 34.2 37.2 21.9 48 8.4 SW 9 13 5 7 1011.7 1011.5 0.2
20/11:30am 32.5 36.1 22.3 55 7.0 N 7 15 4 8 1012.3 1012.1 0.2
20/11:00am 31.9 36.0 22.9 59 6.2 NW 6 11 3 6 1012.5 1012.3 0.2
20/10:30am 30.9 34.7 21.7 58 6.2 WNW 4 7 2 4 1013.1 1012.9 0.2
20/10:00am 30.3 35.4 24.0 69 4.4 NE 4 7 2 4 1013.2 1013.0 0.0
20/09:30am 28.7 34.7 24.9 80 2.7 S 2 2 1 1 1013.1 1012.9 0.0
20/09:00am 27.6 33.4 24.6 84 2.1 SE 2 4 1 2 1013.1 1012.9 5.6
20/08:30am 26.4 32.0 24.2 88 1.5 SE 2 4 1 2 1012.9 1012.7 5.6
20/08:00am 25.5 30.4 23.6 89 1.3 S 4 6 2 3 1012.7 1012.5 5.6
20/07:30am 25.1 29.5 23.5 91 1.1 SSE 6 7 3 4 1012.3 1012.1 5.6
20/07:00am 24.3 29.5 23.6 96 0.5 SSE 2 4 1 2 1011.8 1011.6 5.6
20/06:30am 23.8 28.9 23.3 97 0.3 SE 2 4 1 2 1011.4 1011.2 5.6
20/06:00am 23.6 28.8 22.9 96 0.5 CALM 0 0 0 0 1010.9 1010.7 5.6
20/05:30am 23.3 28.5 22.8 97 0.3 CALM 0 0 0 0 1010.7 1010.6 5.6
20/05:00am 23.0 27.8 22.2 95 0.5 CALM 0 0 0 0 1010.2 1010.1 5.6
20/04:30am 23.7 28.9 22.9 95 0.5 CALM 0 0 0 0 1010.3 1010.2 5.6
20/04:00am 23.9 28.5 23.2 96 0.5 SE 4 6 2 3 1010.2 1010.1 5.6
20/03:30am 23.7 28.3 23.2 97 0.3 ENE 4 6 2 3 1010.3 1010.2 5.6
20/03:00am 23.7 29.0 23.0 96 0.5 CALM 0 0 0 0 1010.3 1010.2 5.6
20/02:30am 23.4 28.5 22.6 95 0.5 CALM 0 0 0 0 1010.1 1010.0 5.6
20/02:00am 23.6 28.7 22.6 94 0.7 CALM 0 0 0 0 1010.1 1010.0 5.6
20/01:30am 24.1 29.4 23.1 94 0.7 CALM 0 0 0 0 1010.2 1010.1 5.6
20/01:00am 24.2 29.5 23.0 93 0.8 CALM 0 0 0 0 1010.4 1010.3 5.6
20/12:30am 24.1 28.8 22.7 92 0.9 W 2 4 1 2 1010.7 1010.6 5.6
20/12:00am 24.4 28.2 22.8 91 1.1 WNW 7 9 4 5 1011.0 1010.8 5.6
 
Date/Time
CST
Temp
°C
App
Temp
°C
Dew
Point
°C
Rel
Hum
%
Delta-T
°C
Wind Press
QNH
hPa
Press
MSL
hPa
Rain since
9am
mm
Dir  Spd
km/h
Gust
km/h
Spd
kts
Gust
kts
19/11:30pm 24.1 28.6 22.9 93 0.8 SW 4 6 2 3 1011.1 1010.9 5.6
19/11:00pm 24.9 30.6 23.7 93 0.8 CALM 0 0 0 0 1011.2 1011.0 5.6
19/10:30pm 24.8 30.2 23.2 91 1.1 CALM 0 0 0 0 1011.0 1010.8 5.6
19/10:00pm 24.8 29.7 22.3 86 1.7 CALM 0 2 0 1 1010.5 1010.4 5.6
19/09:30pm 25.8 29.3 21.9 79 2.6 SSW 6 7 3 4 1010.1 1010.0 5.6
19/09:00pm 25.9 29.7 22.8 83 2.1 SW 7 9 4 5 1009.5 1009.4 5.6
19/08:30pm 25.9 29.7 22.4 81 2.4 NNW 6 7 3 4 1009.0 1008.9 5.6
19/08:00pm 25.8 29.1 22.5 82 2.2 NNW 9 13 5 7 1008.6 1008.5 5.6
19/07:30pm 25.9 28.3 21.6 77 2.9 NNW 11 17 6 9 1008.3 1008.2 5.6
19/07:00pm 25.3 28.4 22.8 86 1.7 WSW 11 19 6 10 1008.6 1008.5 5.6
19/06:30pm 28.7 29.6 21.5 65 4.8 SSW 19 37 10 20 1008.7 1008.6 5.2
19/06:00pm 29.5 33.4 22.5 66 4.8 NW 6 7 3 4 1007.1 1007.0 5.2
19/05:30pm 31.8 33.3 19.8 49 7.9 N 11 15 6 8 1006.5 1006.4 5.2
19/05:00pm 32.9 33.1 19.4 45 8.9 N 17 22 9 12 1006.4 1006.3 5.2
19/04:30pm 31.3 33.3 21.5 56 6.6 N 13 20 7 11 1006.3 1006.2 5.2
19/04:00pm 30.7 35.6 23.6 66 4.9 NE 4 11 2 6 1006.2 1006.1 5.2
19/03:30pm 28.5 33.4 24.7 80 2.7 NNW 7 11 4 6 1006.5 1006.4 5.2
19/03:00pm 27.5 30.5 23.3 78 2.9 S 13 22 7 12 1007.2 1007.1 4.8
19/02:48pm 29.4 30.7 21.6 63 5.2 NE 17 65 9 35 1006.4 1006.3 1.4
19/02:30pm 36.5 37.5 20.3 38 10.9 NNW 15 26 8 14 1006.2 1006.1 0.0
19/02:00pm 37.5 38.8 21.6 39 10.9 N 17 28 9 15 1006.9 1006.8 0.0
19/01:30pm 35.8 36.5 19.7 39 10.7 NNE 15 24 8 13 1007.3 1007.2 0.0
19/01:00pm 35.3 36.6 20.8 42 9.8 N 15 24 8 13 1008.0 1007.9 0.0
19/12:30pm 35.5 36.9 21.0 42 9.8 NNW 15 24 8 13 1008.7 1008.6 0.0
19/12:00pm 34.7 36.4 21.0 44 9.3 NNW 13 22 7 12 1009.1 1009.0 0.0
19/11:30am 35.2 37.2 21.5 45 9.3 N 13 20 7 11 1009.5 1009.4 0.0
19/11:00am 33.0 36.5 23.6 57 6.5 N 11 20 6 11 1009.9 1009.8 0.0
19/10:30am 32.1 36.2 23.9 62 5.7 NNE 9 17 5 9 1010.2 1010.1 0.0
19/10:00am 32.2 36.9 24.3 63 5.5 NNE 7 11 4 6 1010.4 1010.3 0.0
19/09:30am 31.1 36.2 25.0 70 4.3 N 7 15 4 8 1010.5 1010.4 0.0
19/09:00am 29.0 34.7 25.0 79 2.8 ENE 4 7 2 4 1010.9 1010.7 0.6
19/08:30am 28.2 34.0 25.2 84 2.1 SE 4 6 2 3 1010.9 1010.7 0.6
19/08:00am 26.9 32.2 24.9 89 1.4 S 6 9 3 5 1010.5 1010.4 0.6
19/07:30am 26.2 32.2 24.8 92 1.0 SW 2 6 1 3 1010.2 1010.1 0.6
19/07:00am 25.7 31.2 24.7 94 0.7 S 4 6 2 3 1009.7 1009.6 0.6
19/06:30am 25.2 30.6 24.5 96 0.5 S 4 6 2 3 1009.2 1009.1 0.6
19/06:00am 25.3 31.5 24.6 96 0.5 CALM 0 4 0 2 1008.8 1008.7 0.6
19/05:30am 25.3 30.2 24.6 96 0.5 E 7 7 4 4 1008.6 1008.5 0.6
19/05:00am 25.3 31.1 24.6 96 0.5 SE 2 4 1 2 1008.5 1008.4 0.6
19/04:30am 25.2 31.0 24.5 96 0.5 SSE 2 4 1 2 1008.1 1008.0 0.6
19/04:00am 24.8 30.4 24.3 97 0.3 NNE 2 6 1 3 1007.8 1007.7 0.6
19/03:30am 24.9 30.9 24.2 96 0.5 CALM 0 0 0 0 1007.6 1007.5 0.6
19/03:00am 25.0 30.3 24.3 96 0.5 E 4 6 2 3 1007.7 1007.6 0.6
19/02:30am 24.9 30.5 24.2 96 0.5 ENE 2 4 1 2 1007.8 1007.7 0.6
19/02:00am 24.6 30.3 23.7 95 0.6 CALM 0 0 0 0 1007.6 1007.5 0.6
19/01:30am 24.2 29.3 23.3 95 0.6 ENE 2 2 1 1 1007.8 1007.7 0.6
19/01:00am 24.3 29.2 23.1 93 0.8 ENE 2 4 1 2 1007.8 1007.7 0.6
19/12:30am 25.1 30.0 23.7 92 1.0 ENE 4 6 2 3 1008.1 1008.0 0.6
19/12:00am 25.3 30.2 23.7 91 1.1 NE 4 6 2 3 1008.3 1008.2 0.6
 
Date/Time
CST
Temp
°C
App
Temp
°C
Dew
Point
°C
Rel
Hum
%
Delta-T
°C
Wind Press
QNH
hPa
Press
MSL
hPa
Rain since
9am
mm
Dir  Spd
km/h
Gust
km/h
Spd
kts
Gust
kts
18/11:30pm 24.9 29.1 23.1 90 1.2 N 6 6 3 3 1008.4 1008.3 0.6
18/11:00pm 25.7 29.8 23.0 85 1.8 N 6 7 3 4 1008.7 1008.6 0.6
18/10:30pm 26.4 30.0 23.1 82 2.2 N 9 11 5 6 1008.3 1008.2 0.6
18/10:00pm 26.9 30.8 22.9 79 2.7 NNW 7 9 4 5 1008.1 1008.0 0.6
18/09:30pm 27.2 30.9 23.2 79 2.7 NW 9 13 5 7 1007.7 1007.6 0.6
18/09:00pm 27.4 31.6 23.2 78 2.9 NNW 6 7 3 4 1007.6 1007.5 0.6
18/08:30pm 28.1 31.2 23.5 76 3.2 NNE 13 15 7 8 1007.6 1007.5 0.6
18/08:00pm 27.7 31.2 22.9 75 3.3 NNE 9 13 5 7 1007.0 1006.9 0.6
18/07:30pm 28.7 31.6 22.4 68 4.3 SSE 11 15 6 8 1007.4 1007.3 0.6
18/07:00pm 29.4 34.3 23.6 71 4.0 E 4 6 2 3 1007.0 1006.9 0.6
18/06:30pm 30.5 35.1 23.2 65 5.0 NNE 4 7 2 4 1006.3 1006.2 0.6
18/06:00pm 31.6 35.5 22.9 60 6.0 N 7 9 4 5 1005.6 1005.5 0.6
18/05:30pm 32.0 35.4 22.7 58 6.4 NNW 9 13 5 7 1005.0 1004.9 0.6
18/05:00pm 32.8 36.1 22.6 55 7.0 N 9 13 5 7 1004.7 1004.6 0.6
18/04:30pm 33.2 35.8 22.0 51 7.7 NNW 11 15 6 8 1005.0 1004.9 0.6
18/04:00pm 33.5 36.7 21.6 49 8.1 NW 7 11 4 6 1005.3 1005.2 0.6
18/03:30pm 33.8 36.2 20.9 46 8.7 NNW 9 13 5 7 1005.6 1005.5 0.6
18/03:00pm 33.6 36.7 22.1 51 7.9 NNW 9 15 5 8 1005.9 1005.8 0.6
18/02:30pm 33.7 36.7 21.2 48 8.5 NNW 7 13 4 7 1006.3 1006.2 0.6
18/02:00pm 32.9 35.5 22.0 52 7.4 N 11 17 6 9 1006.8 1006.7 0.6
18/01:30pm 32.7 36.5 22.8 56 6.8 W 7 15 4 8 1007.4 1007.3 0.6
18/01:00pm 32.5 36.9 23.4 58 6.3 WNW 6 11 3 6 1007.9 1007.8 0.6
18/12:30pm 31.9 36.0 24.0 63 5.5 W 9 15 5 8 1008.5 1008.4 0.6
18/12:00pm 30.3 34.7 23.5 67 4.7 NW 6 13 3 7 1009.1 1009.0 0.6
18/11:30am 29.1 33.5 23.5 72 3.9 NE 6 9 3 5 1009.4 1009.3 0.6
18/11:00am 27.4 32.0 24.1 82 2.3 NW 7 9 4 5 1009.7 1009.6 0.6
18/10:30am 26.3 30.7 24.5 90 1.2 NNE 9 13 5 7 1009.9 1009.8 0.6
18/10:00am 25.2 29.1 24.3 95 0.6 NW 11 19 6 10 1010.6 1010.5 0.6
18/09:30am 24.2 25.3 23.7 97 0.3 NW 24 32 13 17 1010.2 1010.1 0.6
18/09:00am 24.1 27.4 23.8 98 0.2 NNW 13 17 7 9 1011.1 1010.9 23.4
18/08:30am 24.3 28.9 24.1 99 0.1 ESE 7 9 4 5 1011.6 1011.4 20.2
18/08:00am 24.1 27.4 23.9 99 0.1 ESE 13 20 7 11 1011.1 1010.9 16.2
18/07:30am 23.6 23.2 23.1 97 0.3 ESE 30 43 16 23 1009.1 1009.0 8.6
18/07:00am 25.4 26.5 23.6 90 1.2 E 24 39 13 21 1008.3 1008.2 3.0
18/06:30am 27.0 32.5 26.1 95 0.6 NNE 9 13 5 7 1008.0 1007.9 0.0
18/06:00am 26.8 32.5 25.9 95 0.6 NE 7 11 4 6 1007.8 1007.7 0.0
18/05:30am 26.7 33.6 25.7 94 0.7 CALM 0 2 0 1 1007.6 1007.5 0.0
18/05:00am 26.8 33.1 25.9 95 0.6 ENE 4 6 2 3 1007.0 1006.9 0.0
18/04:30am 26.9 33.9 25.9 94 0.7 CALM 0 2 0 1 1006.8 1006.7 0.0
18/04:00am 26.8 33.0 25.8 94 0.7 NNE 4 7 2 4 1006.6 1006.5 0.0
18/03:30am 26.6 32.4 25.7 95 0.6 N 6 6 3 3 1006.3 1006.2 0.0
18/03:00am 26.4 32.0 25.5 95 0.6 NNE 6 7 3 4 1006.3 1006.2 0.0
18/02:30am 26.4 32.0 25.4 94 0.7 NE 6 7 3 4 1006.7 1006.6 0.0
18/02:00am 26.2 32.0 25.2 94 0.7 NNE 4 6 2 3 1006.7 1006.6 0.0
18/01:30am 26.4 32.0 25.4 94 0.7 NNE 6 7 3 4 1006.9 1006.8 0.0
18/01:00am 26.3 31.7 25.4 95 0.6 NNE 7 9 4 5 1007.1 1007.0 0.0
18/12:30am 25.2 30.3 24.0 93 0.8 NNE 4 7 2 4 1007.0 1006.9 0.0
18/12:00am 25.4 30.2 24.4 94 0.7 N 7 9 4 5 1007.2 1007.1 0.0
 
Date/Time
CST
Temp
°C
App
Temp
°C
Dew
Point
°C
Rel
Hum
%
Delta-T
°C
Wind Press
QNH
hPa
Press
MSL
hPa
Rain since
9am
mm
Dir  Spd
km/h
Gust
km/h
Spd
kts
Gust
kts
17/11:30pm 25.8 30.7 24.4 92 1.0 NE 6 9 3 5 1007.4 1007.3 0.0
17/11:00pm 26.2 31.4 24.2 89 1.4 NE 4 4 2 2 1007.2 1007.1 0.0
17/10:30pm 27.0 32.8 24.5 86 1.7 NW 2 4 1 2 1007.1 1007.0 0.0
17/10:00pm 27.2 32.3 24.7 86 1.7 WNW 6 9 3 5 1006.8 1006.7 0.0
17/09:30pm 27.1 31.9 24.4 85 1.9 WNW 7 9 4 5 1006.4 1006.3 0.0
17/09:00pm 27.7 32.7 24.5 83 2.2 W 6 9 3 5 1006.1 1006.0 0.0
17/08:30pm 27.3 31.9 24.7 86 1.8 W 9 15 5 8 1006.0 1005.9 0.0
17/08:00pm 26.5 30.8 22.6 79 2.6 W 4 7 2 4 1005.9 1005.8 0.0
17/07:30pm 26.9 30.6 22.3 76 3.1 WNW 6 7 3 4 1005.5 1005.4 0.0
17/07:00pm 27.2 29.7 21.7 72 3.7 NW 11 15 6 8 1005.0 1004.9 0.0
17/06:30pm 27.8 28.9 20.4 64 4.9 NW 15 20 8 11 1004.7 1004.6 0.0

Other Formats:

Comma delimited format used in spreadsheet applications
http://www.bom.gov.au/fwo/IDD60801/IDD60801.95121.axf

JavaScript Object Notation format (JSON) in row-major order
http://www.bom.gov.au/fwo/IDD60801/IDD60801.95121.json